Terminal Aerodrome Forecast
Issued by NWS Wakefield, VA

Home | Current Version | Previous Version | Text Only | Print | Product List | Glossary On
Versions: 1 2 3 4 5 6 7 8 9 10 11 12 13 14 15 16 17 18 19 20
000
FTUS41 KAKQ 180539
TAFORF
TAF
KORF 180539Z 1806/1906 19004KT P6SM SCT100 BKN250
     FM180800 22003KT 5SM BR BKN100
     FM181100 03007KT 4SM BR SCT025 BKN100
     FM181400 06009KT P6SM SCT040 SCT250=

USA.gov is the U.S. government's official web portal to all federal, state and local government web resources and services.